createdAt,value
2023-01-10T00:00:57.264Z,100688.95
2023-01-10T00:03:24.105Z,100690.48
2023-01-10T00:05:50.648Z,100691.55
2023-01-10T00:08:17.440Z,100695.17
2023-01-10T00:10:44.077Z,100688.91
2023-01-10T00:13:23.343Z,100693.95
2023-01-10T00:15:51.072Z,100695.59
2023-01-10T00:18:17.998Z,100694.21
2023-01-10T00:20:45.449Z,100697.95
2023-01-10T00:23:12.142Z,100692.52
2023-01-10T00:25:40.235Z,100696.78
2023-01-10T00:28:19.160Z,100698.98
2023-01-10T00:31:06.215Z,100702.88
2023-01-10T00:33:34.135Z,100702.56
2023-01-10T00:36:01.183Z,100699.98
2023-01-10T00:38:28.134Z,100698.27
2023-01-10T00:40:54.964Z,100696.96
2023-01-10T00:43:40.444Z,100698.50
2023-01-10T00:46:08.252Z,100697.91
2023-01-10T00:48:34.961Z,100695.33
2023-01-10T00:51:01.857Z,100693.59
2023-01-10T00:53:28.766Z,100687.36
2023-01-10T00:55:55.433Z,100690.36
2023-01-10T00:58:22.732Z,100686.73
2023-01-10T01:00:49.959Z,100690.05
2023-01-10T01:03:18.206Z,100690.30
2023-01-10T01:05:45.949Z,100692.04
2023-01-10T01:08:13.600Z,100692.05
2023-01-10T01:10:42.753Z,100695.39
2023-01-10T01:13:12.494Z,100694.70
2023-01-10T01:15:39.218Z,100695.39
2023-01-10T01:18:06.125Z,100697.60
2023-01-10T01:20:33.225Z,100698.83
2023-01-10T01:23:00.577Z,100695.98
2023-01-10T01:25:27.226Z,100705.39
2023-01-10T01:27:54.267Z,100698.77
2023-01-10T01:30:21.102Z,100692.00
2023-01-10T01:32:47.934Z,100696.01
2023-01-10T01:35:16.844Z,100698.10
2023-01-10T01:37:43.664Z,100696.65
2023-01-10T01:40:16.176Z,100691.95
2023-01-10T01:42:43.308Z,100692.81
2023-01-10T01:45:26.470Z,100685.91
2023-01-10T01:47:53.086Z,100700.21
2023-01-10T01:50:27.181Z,100691.45
2023-01-10T01:52:55.042Z,100694.20
2023-01-10T01:55:22.160Z,100687.96
2023-01-10T01:57:49.054Z,100691.84
2023-01-10T02:00:15.977Z,100691.86
2023-01-10T02:02:57.733Z,100699.34
2023-01-10T02:05:28.817Z,100695.14
2023-01-10T02:07:55.984Z,100691.29
2023-01-10T02:10:27.634Z,100685.42
2023-01-10T02:12:54.260Z,100691.75
2023-01-10T02:15:20.904Z,100689.77
2023-01-10T02:17:48.575Z,100693.13
2023-01-10T02:20:15.685Z,100689.00
2023-01-10T02:23:17.587Z,100689.64
2023-01-10T02:25:56.411Z,100687.59
2023-01-10T02:28:45.061Z,100688.39
2023-01-10T02:31:30.990Z,100686.23
2023-01-10T02:36:16.204Z,100690.13
2023-01-10T02:38:59.195Z,100691.09
2023-01-10T02:41:30.919Z,100692.05
2023-01-10T02:44:02.781Z,100695.01
2023-01-10T02:46:30.243Z,100697.08
2023-01-10T02:48:57.150Z,100698.23
2023-01-10T02:51:24.834Z,100705.69
2023-01-10T02:54:08.185Z,100709.08
2023-01-10T02:57:10.518Z,100703.09
2023-01-10T02:59:59.750Z,100700.23
2023-01-10T03:03:04.451Z,100705.33
2023-01-10T03:05:37.950Z,100712.98
2023-01-10T03:08:21.174Z,100723.23
2023-01-10T03:10:58.876Z,100723.41
2023-01-10T03:13:35.543Z,100730.98
2023-01-10T03:16:02.976Z,100734.34
2023-01-10T03:18:37.525Z,100730.34
2023-01-10T03:21:05.289Z,100733.23
2023-01-10T03:23:33.147Z,100738.42
2023-01-10T03:26:00.121Z,100742.55
2023-01-10T03:28:34.564Z,100747.45
2023-01-10T03:31:10.547Z,100744.15
2023-01-10T03:33:37.338Z,100745.61
2023-01-10T03:36:20.866Z,100751.35
2023-01-10T03:38:52.786Z,100755.04
2023-01-10T03:41:40.335Z,100757.40
2023-01-10T03:44:45.690Z,100756.53
2023-01-10T03:47:46.503Z,100754.14
2023-01-10T03:50:20.412Z,100756.26
2023-01-10T03:52:47.389Z,100767.50
2023-01-10T03:55:15.851Z,100769.73
2023-01-10T03:57:45.757Z,100772.59
2023-01-10T04:00:13.678Z,100767.44
2023-01-10T04:02:40.429Z,100767.55
2023-01-10T04:05:08.166Z,100765.48
2023-01-10T04:07:34.983Z,100768.39
2023-01-10T04:10:01.764Z,100770.02
2023-01-10T04:12:28.544Z,100767.45
2023-01-10T04:14:55.358Z,100769.35
2023-01-10T04:17:22.270Z,100772.96
2023-01-10T04:19:49.084Z,100775.94
2023-01-10T04:22:16.049Z,100779.59
2023-01-10T04:24:44.356Z,100784.90
2023-01-10T04:27:11.312Z,100788.52
2023-01-10T04:29:38.207Z,100789.90
2023-01-10T04:32:05.494Z,100796.52
2023-01-10T04:34:32.257Z,100785.32
2023-01-10T04:36:59.029Z,100796.62
2023-01-10T04:39:25.784Z,100784.86
2023-01-10T04:41:52.621Z,100787.59
2023-01-10T04:44:19.430Z,100796.98
2023-01-10T04:46:46.219Z,100788.63
2023-01-10T04:49:13.048Z,100791.52
2023-01-10T04:51:39.907Z,100799.21
2023-01-10T04:54:06.870Z,100804.69
2023-01-10T04:56:33.679Z,100800.14
2023-01-10T04:59:00.400Z,100814.33
2023-01-10T05:01:27.248Z,100818.50
2023-01-10T05:03:55.100Z,100827.02
2023-01-10T05:06:22.324Z,100831.32
2023-01-10T05:08:49.039Z,100837.27
2023-01-10T05:11:15.763Z,100843.23
2023-01-10T05:13:42.492Z,100854.94
2023-01-10T05:16:09.305Z,100849.91
2023-01-10T05:18:36.139Z,100856.58
2023-01-10T05:21:10.705Z,100859.38
2023-01-10T05:23:39.520Z,100855.20
2023-01-10T05:26:14.890Z,100858.17
2023-01-10T05:28:42.087Z,100864.24
2023-01-10T05:31:10.057Z,100853.64
2023-01-10T05:33:39.003Z,100847.38
2023-01-10T05:36:09.110Z,100854.65
2023-01-10T05:38:35.845Z,100853.17
2023-01-10T05:41:02.622Z,100857.13
2023-01-10T05:43:29.505Z,100856.70
2023-01-10T05:45:56.337Z,100857.45
2023-01-10T05:48:23.282Z,100855.00
2023-01-10T05:50:50.880Z,100863.84
2023-01-10T05:53:18.311Z,100865.52
2023-01-10T05:55:52.219Z,100858.09
2023-01-10T05:58:19.054Z,100867.61
2023-01-10T06:00:45.893Z,100874.12
2023-01-10T06:03:12.701Z,100887.42
2023-01-10T06:05:39.573Z,100886.16
2023-01-10T06:08:06.436Z,100902.95
2023-01-10T06:10:33.233Z,100902.33
2023-01-10T06:12:59.977Z,100905.65
2023-01-10T06:15:28.149Z,100907.92
2023-01-10T06:17:54.851Z,100900.13
2023-01-10T06:20:21.598Z,100904.56
2023-01-10T06:22:48.442Z,100902.73
2023-01-10T06:25:15.796Z,100909.85
2023-01-10T06:27:42.710Z,100917.39
2023-01-10T06:30:11.146Z,100926.04
2023-01-10T06:32:38.041Z,100913.03
2023-01-10T06:35:05.747Z,100915.88
2023-01-10T06:37:32.633Z,100912.55
2023-01-10T06:39:59.882Z,100909.52
2023-01-10T06:42:26.586Z,100916.86
2023-01-10T06:44:53.372Z,100919.62
2023-01-10T06:47:21.457Z,100915.38
2023-01-10T06:49:48.202Z,100927.73
2023-01-10T06:52:14.962Z,100921.51
2023-01-10T06:54:41.773Z,100927.59
2023-01-10T06:57:08.908Z,100929.16
2023-01-10T06:59:35.857Z,100938.45
2023-01-10T07:02:02.821Z,100933.05
2023-01-10T07:04:29.906Z,100936.86
2023-01-10T07:06:56.786Z,100942.85
2023-01-10T07:09:23.612Z,100953.41
2023-01-10T07:11:50.578Z,100953.29
2023-01-10T07:14:17.365Z,100961.83
2023-01-10T07:16:44.239Z,100964.94
2023-01-10T07:19:13.663Z,100961.21
2023-01-10T07:21:40.506Z,100967.34
2023-01-10T07:24:08.231Z,100968.20
2023-01-10T07:26:35.031Z,100977.45
2023-01-10T07:29:01.957Z,100985.48
2023-01-10T07:31:28.844Z,100989.67
2023-01-10T07:33:55.695Z,100978.38
2023-01-10T07:36:22.446Z,100978.73
2023-01-10T07:38:49.228Z,100977.13
2023-01-10T07:41:15.938Z,100973.99
2023-01-10T07:43:42.726Z,100992.52
2023-01-10T07:46:12.496Z,100979.73
2023-01-10T07:48:41.819Z,100978.93
2023-01-10T07:51:09.323Z,100987.60
2023-01-10T07:53:36.045Z,100993.52
2023-01-10T07:56:03.384Z,100983.71
2023-01-10T07:58:30.223Z,100986.08
2023-01-10T08:00:58.419Z,100985.94
2023-01-10T08:03:25.411Z,100981.64
2023-01-10T08:06:00.181Z,100980.94
2023-01-10T08:08:27.007Z,100991.15
2023-01-10T08:10:53.758Z,100987.69
2023-01-10T08:13:20.595Z,100987.08
2023-01-10T08:15:50.339Z,100989.05
2023-01-10T08:18:17.360Z,100986.41
2023-01-10T08:20:44.167Z,100990.34
2023-01-10T08:23:10.967Z,100996.11
2023-01-10T08:25:39.497Z,100990.45
2023-01-10T08:28:06.584Z,100996.91
2023-01-10T08:30:33.416Z,101001.65
2023-01-10T08:33:02.859Z,100995.48
2023-01-10T08:35:29.756Z,101003.59
2023-01-10T08:38:00.260Z,101006.76
2023-01-10T08:40:27.212Z,101000.45
2023-01-10T08:43:01.135Z,100992.34
2023-01-10T08:45:27.915Z,100995.79
2023-01-10T08:47:54.825Z,100992.30
2023-01-10T08:50:21.841Z,100989.45
2023-01-10T08:52:48.709Z,100993.90
2023-01-10T08:55:15.572Z,100990.34
2023-01-10T08:57:42.367Z,100989.08
2023-01-10T09:00:10.305Z,100985.80
2023-01-10T09:02:37.166Z,100977.60
2023-01-10T09:05:06.258Z,100984.14
2023-01-10T09:07:33.414Z,100985.20
2023-01-10T09:10:00.191Z,100978.89
2023-01-10T09:12:47.318Z,100982.61
2023-01-10T09:15:14.260Z,100980.34
2023-01-10T09:17:41.101Z,100969.17
2023-01-10T09:20:10.150Z,100971.02
2023-01-10T09:22:40.109Z,100969.42
2023-01-10T09:25:08.522Z,100961.41
2023-01-10T09:27:35.332Z,100957.11
2023-01-10T09:30:02.071Z,100961.34
2023-01-10T09:32:28.936Z,100968.38
2023-01-10T09:34:55.715Z,100969.98
2023-01-10T09:37:22.456Z,100968.58
2023-01-10T09:39:49.220Z,100964.08
2023-01-10T09:42:36.150Z,100964.43
2023-01-10T09:45:12.825Z,100967.89
2023-01-10T09:47:51.981Z,100966.68
2023-01-10T09:50:23.581Z,100960.38
2023-01-10T09:52:52.463Z,100962.19
2023-01-10T09:55:28.040Z,100968.09
2023-01-10T09:57:56.117Z,100967.46
2023-01-10T10:00:25.164Z,100971.30
2023-01-10T10:02:52.853Z,100972.05
2023-01-10T10:05:20.856Z,100969.73
2023-01-10T10:07:52.574Z,100977.84
2023-01-10T10:10:51.805Z,100983.80
2023-01-10T10:13:42.612Z,100989.98
2023-01-10T10:16:27.721Z,100988.30
2023-01-10T10:19:00.578Z,100987.17
2023-01-10T10:21:55.465Z,100981.83
2023-01-10T10:24:47.398Z,100981.63
2023-01-10T10:27:24.940Z,100975.41
2023-01-10T10:30:27.157Z,100980.02
2023-01-10T10:33:32.634Z,100978.23
2023-01-10T10:36:03.846Z,100970.52
2023-01-10T10:38:33.978Z,100975.55
2023-01-10T10:41:00.844Z,100970.95
2023-01-10T10:43:32.205Z,100967.73
2023-01-10T10:46:02.217Z,100973.98
2023-01-10T10:48:34.197Z,100969.14
2023-01-10T10:51:22.397Z,100968.95
2023-01-10T10:53:49.523Z,100964.42
2023-01-10T10:56:18.342Z,100962.40
2023-01-10T10:58:46.384Z,100969.77
2023-01-10T11:01:14.313Z,100967.23
2023-01-10T11:03:55.191Z,100954.56
2023-01-10T11:06:21.986Z,100950.77
2023-01-10T11:08:50.141Z,100960.61
2023-01-10T11:11:24.174Z,100959.77
2023-01-10T11:13:55.314Z,100951.54
2023-01-10T11:16:29.863Z,100967.13
2023-01-10T11:19:18.259Z,100964.10
2023-01-10T11:21:49.945Z,100967.31
2023-01-10T11:24:35.106Z,100969.05
2023-01-10T11:27:04.941Z,100969.77
2023-01-10T11:29:42.594Z,100970.66
2023-01-10T11:32:15.211Z,100976.25
2023-01-10T11:34:59.161Z,100982.48
2023-01-10T11:37:33.583Z,100981.37
2023-01-10T11:40:25.956Z,100973.40
2023-01-10T11:42:59.161Z,100979.57
2023-01-10T11:45:33.328Z,100973.68
2023-01-10T11:48:06.868Z,100978.89
2023-01-10T11:50:38.488Z,100974.33
2023-01-10T11:53:06.278Z,100980.52
2023-01-10T11:55:34.628Z,100975.57
2023-01-10T11:58:08.063Z,100975.27
2023-01-10T12:00:38.433Z,100978.90
2023-01-10T12:03:37.153Z,100979.48
2023-01-10T12:06:15.380Z,100977.59
2023-01-10T12:08:42.703Z,100979.61
2023-01-10T12:11:15.486Z,100983.70
2023-01-10T12:13:52.901Z,100972.63
2023-01-10T12:16:26.929Z,100980.38
2023-01-10T12:19:02.351Z,100974.65
2023-01-10T12:21:40.500Z,100972.39
2023-01-10T12:24:37.146Z,100973.30
2023-01-10T12:27:04.250Z,100980.00
2023-01-10T12:29:35.868Z,100980.23
2023-01-10T12:32:03.967Z,100987.04
2023-01-10T12:34:40.154Z,100985.94
2023-01-10T12:37:20.356Z,100979.28
2023-01-10T12:39:52.533Z,100993.08
2023-01-10T12:43:01.046Z,101000.44
2023-01-10T12:45:30.069Z,101008.77
2023-01-10T12:48:01.286Z,101020.76
2023-01-10T12:50:54.079Z,101027.83
2023-01-10T12:53:43.721Z,101027.12
2023-01-10T12:56:13.244Z,101026.27
2023-01-10T12:58:45.091Z,101045.40
2023-01-10T13:01:17.327Z,101028.11
2023-01-10T13:03:45.051Z,101031.61
2023-01-10T13:06:21.591Z,101024.30
2023-01-10T13:08:48.346Z,101028.95
2023-01-10T13:11:15.792Z,101030.13
2023-01-10T13:13:44.053Z,101025.01
2023-01-10T13:16:32.924Z,101023.77
2023-01-10T13:19:12.035Z,101036.11
2023-01-10T13:21:39.774Z,101032.73
2023-01-10T13:24:20.644Z,101032.49
2023-01-10T13:26:57.743Z,101032.14
2023-01-10T13:29:29.398Z,101031.32
2023-01-10T13:32:01.202Z,101043.33
2023-01-10T13:34:33.564Z,101044.16
2023-01-10T13:37:02.931Z,101041.70
2023-01-10T13:39:38.066Z,101039.02
2023-01-10T13:42:23.526Z,101035.54
2023-01-10T13:45:03.444Z,101037.77
2023-01-10T13:47:39.494Z,101040.09
2023-01-10T13:50:25.718Z,101044.13
2023-01-10T13:53:15.504Z,101044.45
2023-01-10T13:55:53.836Z,101040.80
2023-01-10T13:58:42.725Z,101035.90
2023-01-10T14:01:43.231Z,101030.76
2023-01-10T14:04:34.460Z,101024.57
2023-01-10T14:07:03.951Z,101024.04
2023-01-10T14:09:40.060Z,101026.13
2023-01-10T14:12:28.685Z,101024.27
2023-01-10T14:15:00.762Z,101027.21
2023-01-10T14:17:32.211Z,101034.61
2023-01-10T14:20:02.206Z,101033.48
2023-01-10T14:22:33.642Z,101036.39
2023-01-10T14:25:01.769Z,101046.96
2023-01-10T14:27:38.076Z,101047.43
2023-01-10T14:30:05.981Z,101047.65
2023-01-10T14:32:40.908Z,101057.17
2023-01-10T14:35:09.219Z,101049.38
2023-01-10T14:37:46.787Z,101044.35
2023-01-10T14:40:27.259Z,101039.76
2023-01-10T14:42:55.929Z,101048.72
2023-01-10T14:45:48.781Z,101048.06
2023-01-10T14:48:27.525Z,101041.52
2023-01-10T14:53:30.907Z,101046.64
2023-01-10T14:55:58.760Z,101039.77
2023-01-10T14:58:25.722Z,101047.11
2023-01-10T15:00:54.025Z,101048.71
2023-01-10T15:03:22.944Z,101055.28
2023-01-10T15:05:51.957Z,101052.83
2023-01-10T15:08:29.181Z,101062.98
2023-01-10T15:11:02.225Z,101065.48
2023-01-10T15:13:29.104Z,101056.25
2023-01-10T15:15:55.910Z,101062.73
2023-01-10T15:18:29.235Z,101053.48
2023-01-10T15:20:56.871Z,101051.19
2023-01-10T15:23:27.284Z,101059.45
2023-01-10T15:25:58.858Z,101053.80
2023-01-10T15:28:25.716Z,101061.47
2023-01-10T15:30:52.492Z,101063.89
2023-01-10T15:33:21.745Z,101073.92
2023-01-10T15:35:48.509Z,101072.34
2023-01-10T15:38:17.039Z,101073.95
2023-01-10T15:40:43.789Z,101068.17
2023-01-10T15:43:15.132Z,101062.66
2023-01-10T15:45:42.995Z,101060.60
2023-01-10T15:48:31.325Z,101064.29
2023-01-10T15:51:11.897Z,101052.28
2023-01-10T15:54:05.465Z,101057.76
2023-01-10T15:56:38.286Z,101056.17
2023-01-10T15:59:06.122Z,101061.10
2023-01-10T16:01:33.240Z,101067.87
2023-01-10T16:04:04.660Z,101068.67
2023-01-10T16:06:36.161Z,101082.33
2023-01-10T16:09:07.520Z,101077.63
2023-01-10T16:12:06.967Z,101086.27
2023-01-10T16:14:34.030Z,101077.77
2023-01-10T16:17:04.135Z,101092.23
2023-01-10T16:19:31.103Z,101082.47
2023-01-10T16:21:58.557Z,101082.08
2023-01-10T16:24:27.587Z,101083.23
2023-01-10T16:26:55.648Z,101075.82
2023-01-10T16:29:22.950Z,101076.72
2023-01-10T16:31:52.276Z,101068.24
2023-01-10T16:34:19.687Z,101070.20
2023-01-10T16:36:46.470Z,101076.10
2023-01-10T16:39:15.486Z,101072.71
2023-01-10T16:42:02.173Z,101076.05
2023-01-10T16:44:29.315Z,101067.02
2023-01-10T16:46:56.261Z,101078.90
2023-01-10T16:49:22.995Z,101073.86
2023-01-10T16:51:50.135Z,101069.35
2023-01-10T16:54:19.733Z,101076.81
2023-01-10T16:56:47.433Z,101078.19
2023-01-10T16:59:14.549Z,101082.04
2023-01-10T17:01:43.581Z,101077.71
2023-01-10T17:04:12.656Z,101076.27
2023-01-10T17:06:41.373Z,101077.98
2023-01-10T17:09:13.723Z,101083.38
2023-01-10T17:11:40.869Z,101081.09
2023-01-10T17:14:10.476Z,101077.57
2023-01-10T17:16:37.257Z,101076.71
2023-01-10T17:19:04.280Z,101081.25
2023-01-10T17:21:31.104Z,101081.95
2023-01-10T17:23:57.843Z,101088.05
2023-01-10T17:26:24.584Z,101084.54
2023-01-10T17:28:51.377Z,101078.52
2023-01-10T17:31:19.839Z,101083.61
2023-01-10T17:33:48.641Z,101086.21
2023-01-10T17:36:17.050Z,101082.34
2023-01-10T17:38:45.301Z,101086.39
2023-01-10T17:41:12.203Z,101088.20
2023-01-10T17:43:39.584Z,101088.36
2023-01-10T17:46:06.427Z,101088.31
2023-01-10T17:48:34.875Z,101091.77
2023-01-10T17:51:02.026Z,101093.87
2023-01-10T17:53:29.300Z,101093.80
2023-01-10T17:55:58.471Z,101099.56
2023-01-10T17:58:26.367Z,101106.53
2023-01-10T18:00:53.279Z,101103.80
2023-01-10T18:03:20.187Z,101112.01
2023-01-10T18:05:50.863Z,101100.31
2023-01-10T18:08:17.659Z,101105.09
2023-01-10T18:10:44.466Z,101100.38
2023-01-10T18:13:12.189Z,101111.67
2023-01-10T18:15:43.614Z,101114.63
2023-01-10T18:18:10.745Z,101114.14
2023-01-10T18:20:44.167Z,101114.23
2023-01-10T18:23:22.337Z,101114.09
2023-01-10T18:26:02.325Z,101121.35
2023-01-10T18:28:40.582Z,101125.53
2023-01-10T18:31:18.257Z,101125.25
2023-01-10T18:33:46.639Z,101127.95
2023-01-10T18:36:18.626Z,101135.63
2023-01-10T18:38:46.224Z,101131.75
2023-01-10T18:41:16.288Z,101134.85
2023-01-10T18:43:43.341Z,101142.55
2023-01-10T18:46:19.599Z,101149.13
2023-01-10T18:48:47.021Z,101149.52
2023-01-10T18:51:14.858Z,101157.63
2023-01-10T18:53:42.311Z,101153.64
2023-01-10T18:56:09.191Z,101161.27
2023-01-10T18:58:40.302Z,101155.20
2023-01-10T19:01:09.999Z,101155.73
2023-01-10T19:03:37.138Z,101157.34
2023-01-10T19:06:04.858Z,101157.09
2023-01-10T19:08:31.831Z,101159.60
2023-01-10T19:11:15.644Z,101152.61
2023-01-10T19:13:44.157Z,101159.05
2023-01-10T19:16:13.099Z,101158.24
2023-01-10T19:18:40.518Z,101158.80
2023-01-10T19:21:11.943Z,101161.42
2023-01-10T19:23:38.913Z,101166.80
2023-01-10T19:26:05.856Z,101161.80
2023-01-10T19:28:32.736Z,101169.48
2023-01-10T19:31:04.676Z,101172.83
2023-01-10T19:33:34.455Z,101174.89
2023-01-10T19:36:08.483Z,101177.01
2023-01-10T19:38:35.476Z,101183.20
2023-01-10T19:41:02.776Z,101185.48
2023-01-10T19:43:29.870Z,101186.72
2023-01-10T19:45:56.910Z,101187.08
2023-01-10T19:48:24.136Z,101175.84
2023-01-10T19:50:50.918Z,101180.27
2023-01-10T19:53:23.794Z,101175.91
2023-01-10T19:55:59.635Z,101179.52
2023-01-10T19:58:26.456Z,101182.88
2023-01-10T20:00:53.403Z,101180.49
2023-01-10T20:03:20.442Z,101179.26
2023-01-10T20:05:47.496Z,101188.98
2023-01-10T20:08:14.250Z,101183.45
2023-01-10T20:10:40.995Z,101186.55
2023-01-10T20:13:10.189Z,101186.59
2023-01-10T20:15:37.180Z,101187.98
2023-01-10T20:18:04.150Z,101194.77
2023-01-10T20:20:32.536Z,101190.41
2023-01-10T20:22:59.363Z,101191.39
2023-01-10T20:25:26.438Z,101183.28
2023-01-10T20:27:53.377Z,101189.20
2023-01-10T20:30:20.425Z,101196.17
2023-01-10T20:32:47.547Z,101193.39
2023-01-10T20:35:14.625Z,101198.79
2023-01-10T20:37:41.573Z,101202.45
2023-01-10T20:40:09.794Z,101198.27
2023-01-10T20:42:36.576Z,101199.12
2023-01-10T20:45:04.153Z,101204.66
2023-01-10T20:47:32.429Z,101202.63
2023-01-10T20:49:59.364Z,101200.36
2023-01-10T20:52:27.431Z,101196.70
2023-01-10T20:54:54.483Z,101202.10
2023-01-10T20:57:21.321Z,101197.20
2023-01-10T20:59:48.167Z,101202.63
2023-01-10T21:02:15.057Z,101201.05
2023-01-10T21:04:42.054Z,101206.80
2023-01-10T21:07:08.967Z,101209.16
2023-01-10T21:09:35.947Z,101207.81
2023-01-10T21:12:17.575Z,101210.77
2023-01-10T21:14:49.500Z,101212.36
2023-01-10T21:17:16.458Z,101218.05
2023-01-10T21:19:43.159Z,101215.17
2023-01-10T21:22:10.064Z,101216.56
2023-01-10T21:24:37.514Z,101222.16
2023-01-10T21:27:04.348Z,101234.85
2023-01-10T21:29:31.188Z,101232.96
2023-01-10T21:31:58.020Z,101238.47
2023-01-10T21:34:24.757Z,101238.94
2023-01-10T21:36:52.304Z,101243.49
2023-01-10T21:39:19.075Z,101246.16
2023-01-10T21:42:04.786Z,101246.15
2023-01-10T21:44:31.494Z,101247.63
2023-01-10T21:46:58.410Z,101236.61
2023-01-10T21:49:25.683Z,101235.35
2023-01-10T21:51:52.732Z,101233.39
2023-01-10T21:54:19.620Z,101229.59
2023-01-10T21:56:46.367Z,101225.73
2023-01-10T21:59:13.132Z,101227.36
2023-01-10T22:01:39.927Z,101227.89
2023-01-10T22:04:07.004Z,101229.47
2023-01-10T22:06:33.896Z,101233.11
2023-01-10T22:09:00.935Z,101239.57
2023-01-10T22:11:27.895Z,101238.52
2023-01-10T22:13:55.304Z,101245.27
2023-01-10T22:16:22.067Z,101245.43
2023-01-10T22:18:49.843Z,101252.81
